Time;durP1;ratioP1;P1;durP2;ratioP2;P2;SDS_P1;SDS_P2;PMS_P1;PMS_P2;Temp;Humidity;BMP_temperature;BMP_pressure;BME280_temperature;BME280_humidity;BME280_pressure;Samples;Min_cycle;Max_cycle;Signal;HPM_P1;HPM_P2
2021/03/21 00:00:11;;;;;;;3.83;3.17;;;3.20;99.90;;;;;;5083945;28;20197;-60
2021/03/21 00:02:38;;;;;;;3.83;3.30;;;3.20;99.90;;;;;;5082551;28;20236;-60
2021/03/21 00:05:07;;;;;;;4.63;3.20;;;3.30;99.90;;;;;;5075560;28;20264;-61
2021/03/21 00:07:34;;;;;;;3.97;3.20;;;3.20;99.90;;;;;;5075256;28;20206;-61
2021/03/21 00:10:02;;;;;;;5.43;3.67;;;3.20;99.90;;;;;;5075572;28;20288;-62
2021/03/21 00:12:30;;;;;;;4.03;3.50;;;3.20;99.90;;;;;;5075123;28;20680;-61
2021/03/21 00:14:58;;;;;;;4.93;3.00;;;3.20;99.90;;;;;;5077584;28;20322;-60
2021/03/21 00:17:25;;;;;;;2.83;2.53;;;3.20;99.90;;;;;;5082997;28;20199;-59
2021/03/21 00:19:52;;;;;;;5.07;3.40;;;3.20;99.90;;;;;;5083702;28;20209;-60
2021/03/21 00:22:19;;;;;;;4.50;3.40;;;3.30;99.90;;;;;;5075960;28;20810;-60
2021/03/21 00:24:46;;;;;;;4.70;3.53;;;3.30;99.90;;;;;;5075205;28;20283;-61
2021/03/21 00:27:15;;;;;;;3.53;2.73;;;3.30;99.90;;;;;;5074925;28;20215;-60
2021/03/21 00:29:42;;;;;;;6.57;5.17;;;3.30;99.90;;;;;;5074819;28;20259;-61
2021/03/21 00:32:11;;;;;;;4.70;3.67;;;3.30;99.90;;;;;;5074536;28;20547;-60
2021/03/21 00:34:38;;;;;;;3.93;3.20;;;3.30;99.90;;;;;;5075079;28;20221;-60
2021/03/21 00:37:05;;;;;;;3.60;3.20;;;3.30;99.90;;;;;;5074537;28;20283;-60
2021/03/21 00:39:32;;;;;;;5.33;2.83;;;3.30;99.90;;;;;;5074665;28;20207;-59
2021/03/21 00:41:59;;;;;;;3.37;3.00;;;3.30;99.90;;;;;;5074614;28;20540;-60
2021/03/21 00:44:26;;;;;;;4.53;3.00;;;3.40;99.90;;;;;;5074759;28;20227;-59
2021/03/21 00:46:53;;;;;;;5.37;3.30;;;3.30;99.90;;;;;;5074422;28;20207;-60
2021/03/21 00:49:21;;;;;;;6.23;3.20;;;3.30;99.90;;;;;;5074567;28;20196;-59
2021/03/21 00:51:47;;;;;;;4.33;2.83;;;3.30;99.90;;;;;;5074616;28;20300;-60
2021/03/21 00:54:14;;;;;;;4.70;3.47;;;3.30;99.90;;;;;;5074028;28;20275;-60
2021/03/21 00:56:42;;;;;;;3.80;3.33;;;3.30;99.90;;;;;;5074528;28;20287;-60
2021/03/21 00:59:09;;;;;;;3.67;3.00;;;3.30;99.90;;;;;;5074475;28;20211;-59
2021/03/21 01:01:37;;;;;;;3.40;3.10;;;3.30;99.90;;;;;;5081022;28;20667;-60
2021/03/21 01:04:04;;;;;;;3.97;3.10;;;3.30;99.90;;;;;;5094240;28;20203;-60
2021/03/21 01:06:33;;;;;;;4.07;3.67;;;3.30;99.90;;;;;;5094353;28;20204;-60
2021/03/21 01:09:03;;;;;;;4.83;3.37;;;3.30;99.90;;;;;;5093928;28;20204;-60
2021/03/21 01:11:32;;;;;;;3.83;2.90;;;3.30;99.90;;;;;;5093822;28;20590;-59
2021/03/21 01:13:59;;;;;;;5.07;3.20;;;3.30;99.90;;;;;;5094204;28;20235;-61
2021/03/21 01:16:29;;;;;;;3.90;3.10;;;3.30;99.90;;;;;;5093951;28;20261;-60
2021/03/21 01:18:56;;;;;;;4.33;3.40;;;3.20;99.90;;;;;;5093941;28;20206;-61
2021/03/21 01:21:25;;;;;;;4.27;3.33;;;3.20;99.90;;;;;;5093947;28;20607;-61
2021/03/21 01:23:53;;;;;;;4.73;3.43;;;3.20;99.90;;;;;;5093559;28;20239;-61
2021/03/21 01:26:22;;;;;;;3.93;3.13;;;3.30;99.90;;;;;;5093771;28;20200;-61
2021/03/21 01:28:50;;;;;;;4.37;3.33;;;3.30;99.90;;;;;;5093655;28;20203;-61
2021/03/21 01:31:19;;;;;;;5.27;4.17;;;3.30;99.90;;;;;;5093450;28;20287;-61
2021/03/21 01:33:48;;;;;;;3.80;3.30;;;3.30;99.90;;;;;;5093003;28;20222;-61
2021/03/21 01:36:16;;;;;;;4.90;3.73;;;3.30;99.90;;;;;;5093809;28;20346;-62
2021/03/21 01:38:44;;;;;;;5.07;3.90;;;3.30;99.90;;;;;;5093505;28;20227;-60
2021/03/21 01:41:17;;;;;;;6.23;4.10;;;3.40;99.90;;;;;;5093663;28;20200;-61
2021/03/21 01:43:45;;;;;;;6.57;4.40;;;3.40;99.90;;;;;;5093519;28;20620;-62
2021/03/21 01:46:19;;;;;;;6.73;4.57;;;3.40;99.90;;;;;;5093414;28;20216;-60
2021/03/21 01:48:49;;;;;;;5.63;4.00;;;3.40;99.90;;;;;;5093630;28;20184;-60
2021/03/21 01:51:22;;;;;;;7.33;4.90;;;3.50;99.90;;;;;;5093702;28;20181;-61
2021/03/21 01:53:53;;;;;;;5.63;4.80;;;3.50;99.90;;;;;;5093264;28;20227;-61
2021/03/21 01:56:21;;;;;;;5.90;4.73;;;3.50;99.90;;;;;;5093422;28;20612;-60
2021/03/21 01:58:53;;;;;;;7.97;5.57;;;3.50;99.90;;;;;;5092873;28;20732;-61
2021/03/21 02:01:25;;;;;;;6.83;5.07;;;3.50;99.90;;;;;;5093140;28;20195;-61
2021/03/21 02:03:52;;;;;;;6.13;5.13;;;3.60;99.90;;;;;;5093140;28;20546;-60
2021/03/21 02:06:35;;;;;;;7.63;5.77;;;3.60;99.90;;;;;;5093032;28;20242;-61
2021/03/21 02:09:11;;;;;;;8.40;5.87;;;3.60;99.90;;;;;;5093328;28;20314;-61
2021/03/21 02:11:53;;;;;;;7.60;5.73;;;3.60;99.90;;;;;;5092972;28;20192;-61
2021/03/21 02:14:25;;;;;;;7.47;5.47;;;3.60;99.90;;;;;;5092936;28;20259;-61
2021/03/21 02:17:00;;;;;;;9.77;6.00;;;3.50;99.90;;;;;;5093237;28;20271;-60
2021/03/21 02:19:52;;;;;;;7.23;5.93;;;3.50;99.90;;;;;;5093272;28;20207;-62
2021/03/21 02:22:27;;;;;;;9.77;5.50;;;3.60;99.90;;;;;;5092939;28;20276;-60
2021/03/21 02:25:14;;;;;;;8.73;5.73;;;3.60;99.90;;;;;;5093183;28;20188;-60
2021/03/21 02:28:04;;;;;;;9.20;6.17;;;3.60;99.90;;;;;;5092663;28;20231;-61
2021/03/21 02:30:39;;;;;;;7.80;6.13;;;3.60;99.90;;;;;;5092748;28;20268;-60
2021/03/21 02:33:11;;;;;;;9.03;5.73;;;3.70;99.90;;;;;;5092960;28;20290;-61
2021/03/21 02:35:45;;;;;;;8.50;6.03;;;3.70;99.90;;;;;;5092624;28;20204;-61
2021/03/21 02:38:21;;;;;;;7.93;5.40;;;3.70;99.90;;;;;;5092709;28;20191;-61
2021/03/21 02:40:53;;;;;;;5.40;4.60;;;3.70;99.90;;;;;;5092640;28;20283;-60
2021/03/21 02:43:23;;;;;;;5.57;4.20;;;3.60;99.90;;;;;;5092705;28;20223;-60
2021/03/21 02:45:54;;;;;;;6.40;4.33;;;3.60;99.90;;;;;;5092664;28;20285;-61
2021/03/21 02:48:25;;;;;;;4.90;4.40;;;3.60;99.90;;;;;;5092762;28;20189;-60
2021/03/21 02:50:56;;;;;;;6.67;4.27;;;3.70;99.90;;;;;;5092516;28;20630;-60
2021/03/21 02:53:30;;;;;;;6.90;4.07;;;3.70;99.90;;;;;;5092197;28;20231;-60
2021/03/21 02:56:01;;;;;;;6.40;4.10;;;3.70;99.90;;;;;;5092360;28;20220;-60
2021/03/21 02:58:31;;;;;;;6.10;4.20;;;3.70;99.90;;;;;;5092583;28;20289;-61
2021/03/21 03:01:06;;;;;;;4.77;4.20;;;3.60;99.90;;;;;;5092071;28;20587;-61
2021/03/21 03:03:34;;;;;;;7.30;3.90;;;3.60;99.90;;;;;;5092393;28;20584;-61
2021/03/21 03:06:05;;;;;;;7.00;4.00;;;3.50;99.90;;;;;;5092573;28;20192;-60
2021/03/21 03:08:38;;;;;;;6.53;5.27;;;3.70;99.90;;;;;;5092501;28;20272;-61
2021/03/21 03:11:10;;;;;;;6.53;4.50;;;3.70;99.90;;;;;;5092568;28;20223;-61
2021/03/21 03:13:40;;;;;;;4.83;4.10;;;3.70;99.90;;;;;;5092207;28;20283;-60
2021/03/21 03:16:18;;;;;;;4.63;4.17;;;3.70;99.90;;;;;;5092753;28;20346;-60
2021/03/21 03:18:52;;;;;;;5.33;4.20;;;3.70;99.90;;;;;;5092608;28;20207;-60
2021/03/21 03:21:27;;;;;;;8.20;5.37;;;3.70;99.90;;;;;;5092269;28;20735;-61
2021/03/21 03:24:01;;;;;;;6.97;4.63;;;3.70;99.90;;;;;;5092749;28;20266;-61
2021/03/21 03:26:38;;;;;;;7.50;4.80;;;3.60;99.90;;;;;;5092007;28;20647;-61
2021/03/21 03:29:28;;;;;;;7.70;5.20;;;3.70;99.90;;;;;;5092069;28;20203;-60
2021/03/21 03:31:58;;;;;;;7.97;5.47;;;3.60;99.90;;;;;;5092408;28;20244;-61
2021/03/21 03:34:27;;;;;;;9.53;5.77;;;3.70;99.90;;;;;;5092395;28;20264;-60
2021/03/21 03:36:54;;;;;;;7.87;5.30;;;3.70;99.90;;;;;;5092248;28;20239;-60
2021/03/21 03:39:22;;;;;;;7.00;5.70;;;3.70;99.90;;;;;;5092393;28;20208;-60
2021/03/21 03:41:59;;;;;;;6.73;5.60;;;3.70;99.90;;;;;;5092011;28;20683;-62
2021/03/21 03:44:32;;;;;;;7.30;5.53;;;3.70;99.90;;;;;;5091699;28;20184;-60
2021/03/21 03:47:09;;;;;;;7.80;6.07;;;3.70;99.90;;;;;;5092269;28;20184;-61
2021/03/21 03:49:45;;;;;;;8.23;5.77;;;3.70;99.90;;;;;;5092273;28;20197;-61
2021/03/21 03:52:28;;;;;;;8.10;6.43;;;3.70;99.90;;;;;;5092128;28;20219;-61
2021/03/21 03:55:01;;;;;;;8.03;6.00;;;3.70;99.90;;;;;;5092094;28;20263;-61
2021/03/21 03:57:30;;;;;;;7.70;6.27;;;3.70;99.90;;;;;;5095705;28;20284;-60
2021/03/21 04:00:12;;;;;;;7.93;6.30;;;3.80;99.90;;;;;;5095626;28;20552;-60
2021/03/21 04:02:45;;;;;;;9.03;7.33;;;3.80;99.90;;;;;;5095736;28;20220;-61
2021/03/21 04:05:19;;;;;;;9.50;7.43;;;3.80;99.90;;;;;;5095752;28;20524;-60
2021/03/21 04:07:53;;;;;;;9.70;7.23;;;3.90;99.90;;;;;;5095564;28;20223;-60
2021/03/21 04:10:24;;;;;;;10.33;7.77;;;3.80;99.90;;;;;;5095536;28;20248;-59
2021/03/21 04:13:02;;;;;;;10.87;7.20;;;3.90;99.90;;;;;;5095914;28;20187;-61
2021/03/21 04:15:33;;;;;;;10.93;7.93;;;3.80;99.90;;;;;;5105890;28;20379;-61
2021/03/21 04:18:06;;;;;;;10.67;8.27;;;3.90;99.90;;;;;;5106333;28;20666;-60
2021/03/21 04:20:37;;;;;;;11.00;8.03;;;4.00;99.90;;;;;;5095358;28;20238;-60
2021/03/21 04:23:10;;;;;;;12.20;8.70;;;4.00;99.90;;;;;;5095257;28;20215;-61
2021/03/21 04:25:42;;;;;;;11.50;8.97;;;4.00;99.90;;;;;;5095353;28;20274;-61
2021/03/21 04:28:16;;;;;;;12.30;9.10;;;4.00;99.90;;;;;;5094533;28;20222;-60
2021/03/21 04:30:47;;;;;;;11.07;8.90;;;4.00;99.90;;;;;;5094882;28;20227;-62
2021/03/21 04:33:21;;;;;;;10.93;9.17;;;4.00;99.90;;;;;;5094665;28;20283;-60
2021/03/21 04:35:52;;;;;;;10.60;8.40;;;4.00;99.90;;;;;;5095137;28;20256;-60
2021/03/21 04:38:28;;;;;;;10.93;8.67;;;4.00;99.90;;;;;;5094959;28;20272;-61
2021/03/21 04:40:57;;;;;;;11.30;8.23;;;4.00;99.90;;;;;;5094779;28;20280;-60
2021/03/21 04:43:30;;;;;;;10.13;8.67;;;4.10;99.90;;;;;;5094207;28;20298;-61
2021/03/21 04:46:01;;;;;;;12.57;9.37;;;4.10;99.90;;;;;;5095000;28;20217;-61
2021/03/21 04:48:29;;;;;;;11.50;9.07;;;4.10;99.90;;;;;;5094864;28;20185;-60
2021/03/21 04:51:01;;;;;;;13.07;9.80;;;4.00;99.90;;;;;;5094766;28;20233;-61
2021/03/21 04:53:38;;;;;;;11.17;8.87;;;4.10;99.90;;;;;;5094459;28;20331;-60
2021/03/21 04:56:13;;;;;;;11.57;9.13;;;4.10;99.90;;;;;;5094118;28;20302;-62
2021/03/21 04:58:42;;;;;;;11.60;9.17;;;4.10;99.90;;;;;;5094172;28;20655;-60
2021/03/21 05:01:13;;;;;;;12.07;9.20;;;4.00;99.90;;;;;;5094382;28;20200;-61
2021/03/21 05:03:45;;;;;;;12.97;9.23;;;4.10;99.90;;;;;;5094581;28;20184;-60
2021/03/21 05:06:23;;;;;;;11.17;8.67;;;4.10;99.90;;;;;;5093839;28;20186;-60
2021/03/21 05:08:54;;;;;;;14.03;10.10;;;4.00;99.90;;;;;;5093934;28;20711;-61
2021/03/21 05:11:22;;;;;;;11.43;9.17;;;4.00;99.90;;;;;;5094324;28;20559;-61
2021/03/21 05:13:55;;;;;;;11.50;9.27;;;4.00;99.90;;;;;;5093939;28;20310;-60
2021/03/21 05:16:28;;;;;;;12.33;9.60;;;3.90;99.90;;;;;;5094302;28;20291;-61
2021/03/21 05:19:05;;;;;;;11.70;9.07;;;4.00;99.90;;;;;;5093911;28;20539;-61
2021/03/21 05:21:39;;;;;;;12.60;9.17;;;4.00;99.90;;;;;;5094176;28;20211;-60
2021/03/21 05:24:14;;;;;;;12.10;9.23;;;4.00;99.90;;;;;;5093749;28;20625;-60
2021/03/21 05:26:44;;;;;;;12.37;10.00;;;4.10;99.90;;;;;;5093534;28;20185;-60
2021/03/21 05:29:33;;;;;;;11.77;9.30;;;4.10;99.90;;;;;;5093942;28;20271;-61
2021/03/21 05:32:00;;;;;;;12.93;9.20;;;4.10;99.90;;;;;;5094018;28;20224;-60
2021/03/21 05:34:28;;;;;;;13.60;10.00;;;4.10;99.90;;;;;;5093985;28;20203;-61
2021/03/21 05:37:06;;;;;;;11.80;9.27;;;4.10;99.90;;;;;;5093473;28;20224;-60
2021/03/21 05:39:52;;;;;;;12.47;9.43;;;4.10;99.90;;;;;;5093962;28;20189;-60
2021/03/21 05:43:02;;;;;;;13.17;9.47;;;4.10;99.90;;;;;;5093087;28;20277;-60
2021/03/21 05:46:05;;;;;;;12.20;9.87;;;4.10;99.90;;;;;;5093750;28;20269;-61
2021/03/21 05:48:51;;;;;;;11.43;9.17;;;4.10;99.90;;;;;;5093500;28;20204;-62
2021/03/21 05:51:55;;;;;;;12.57;10.00;;;4.20;99.90;;;;;;5093368;28;20655;-61
2021/03/21 05:54:56;;;;;;;12.90;9.97;;;4.10;99.90;;;;;;5093037;28;20790;-61
2021/03/21 05:57:55;;;;;;;12.20;9.70;;;4.10;99.90;;;;;;5093178;28;20213;-61
2021/03/21 06:00:55;;;;;;;13.00;9.57;;;4.10;99.90;;;;;;5067533;28;20231;-63
2021/03/21 06:03:54;;;;;;;13.13;10.17;;;4.10;99.90;;;;;;5073078;28;20224;-60
2021/03/21 06:07:03;;;;;;;13.40;9.67;;;4.10;99.90;;;;;;5073019;28;20201;-60
2021/03/21 06:09:53;;;;;;;12.83;10.03;;;4.00;99.90;;;;;;5072916;28;20193;-61
2021/03/21 06:12:41;;;;;;;12.87;10.17;;;3.90;99.90;;;;;;5072624;28;20189;-60
2021/03/21 06:15:49;;;;;;;13.53;10.93;;;3.90;99.90;;;;;;5073239;28;20302;-59
2021/03/21 06:18:26;;;;;;;12.63;10.10;;;3.90;99.90;;;;;;5062178;28;20246;-59
2021/03/21 06:21:26;;;;;;;13.60;10.70;;;4.00;99.90;;;;;;5073104;28;20188;-60
2021/03/21 06:24:23;;;;;;;12.07;9.90;;;4.00;99.90;;;;;;5072829;28;20276;-60
2021/03/21 06:27:02;;;;;;;13.10;10.33;;;4.10;99.90;;;;;;5069010;28;20277;-61
2021/03/21 06:29:53;;;;;;;14.57;10.87;;;4.10;99.90;;;;;;5072912;28;20216;-61
2021/03/21 06:32:48;;;;;;;11.97;9.43;;;4.20;99.90;;;;;;5072818;28;20185;-60
2021/03/21 06:35:25;;;;;;;12.60;9.80;;;4.20;99.90;;;;;;5072396;28;20623;-60
2021/03/21 06:38:23;;;;;;;12.63;9.87;;;4.30;99.90;;;;;;5072706;28;20202;-61
2021/03/21 06:41:13;;;;;;;12.30;10.10;;;4.40;99.90;;;;;;5072301;28;20201;-61
2021/03/21 06:44:22;;;;;;;16.23;11.20;;;4.30;99.90;;;;;;5072687;28;20288;-61
2021/03/21 06:47:00;;;;;;;13.40;10.43;;;4.40;99.90;;;;;;5072713;28;20264;-61
2021/03/21 06:49:44;;;;;;;14.10;10.90;;;4.50;99.90;;;;;;5072332;28;20225;-61
2021/03/21 06:52:28;;;;;;;14.93;11.10;;;4.60;99.90;;;;;;5072459;28;20270;-60
2021/03/21 06:55:00;;;;;;;14.13;12.17;;;4.70;99.90;;;;;;5071802;28;20703;-61
2021/03/21 06:58:14;;;;;;;14.13;11.80;;;4.70;99.90;;;;;;5071813;28;20632;-61
2021/03/21 07:00:56;;;;;;;15.17;13.33;;;4.70;99.90;;;;;;5072531;28;20222;-60
2021/03/21 07:04:17;;;;;;;14.60;11.63;;;4.60;99.90;;;;;;5072348;28;20184;-61
2021/03/21 07:07:17;;;;;;;14.73;11.93;;;4.60;99.90;;;;;;5072071;28;20203;-61
2021/03/21 07:10:21;;;;;;;14.47;10.60;;;4.60;99.90;;;;;;5072207;28;20817;-60
2021/03/21 07:13:30;;;;;;;14.30;11.30;;;4.60;99.90;;;;;;5071914;28;20225;-61
2021/03/21 07:16:20;;;;;;;12.40;10.60;;;4.60;99.90;;;;;;5050596;28;20224;-61
2021/03/21 07:19:33;;;;;;;14.23;11.03;;;4.60;99.90;;;;;;5061003;28;20209;-60
2021/03/21 07:22:37;;;;;;;12.90;10.27;;;4.70;99.90;;;;;;5071936;28;20571;-60
2021/03/21 07:25:45;;;;;;;16.73;11.77;;;4.70;99.90;;;;;;5072186;28;20182;-61
2021/03/21 07:28:41;;;;;;;15.40;10.63;;;4.70;99.90;;;;;;5072029;28;20264;-62
2021/03/21 07:31:24;;;;;;;17.70;11.67;;;4.70;99.90;;;;;;5069138;28;20749;-61
2021/03/21 07:34:10;;;;;;;14.33;10.90;;;4.60;99.90;;;;;;5076141;28;20255;-61
2021/03/21 07:36:50;;;;;;;14.57;10.87;;;4.70;99.90;;;;;;5075926;28;20262;-61
2021/03/21 07:39:38;;;;;;;13.57;10.80;;;4.80;99.90;;;;;;5075714;28;20269;-61
2021/03/21 07:42:25;;;;;;;15.10;11.60;;;4.90;99.90;;;;;;5075232;28;20235;-61
2021/03/21 07:45:18;;;;;;;13.53;10.53;;;5.00;99.90;;;;;;5075769;28;20226;-61
2021/03/21 07:48:03;;;;;;;13.57;10.87;;;5.10;99.90;;;;;;5067957;28;20293;-61
2021/03/21 07:50:38;;;;;;;14.83;10.83;;;5.20;99.90;;;;;;5075541;28;20191;-61
2021/03/21 07:53:20;;;;;;;13.80;10.90;;;5.20;99.90;;;;;;5074836;28;20713;-61
2021/03/21 07:55:53;;;;;;;14.83;10.47;;;5.20;99.90;;;;;;5074979;28;20221;-61
2021/03/21 07:58:26;;;;;;;12.90;10.40;;;5.20;99.90;;;;;;5075443;28;20186;-62
2021/03/21 08:00:54;;;;;;;12.20;10.27;;;5.30;99.90;;;;;;5075456;28;20283;-61
2021/03/21 08:03:33;;;;;;;14.57;11.07;;;5.30;99.90;;;;;;5089044;28;20208;-62
2021/03/21 08:06:02;;;;;;;14.33;10.03;;;5.20;99.90;;;;;;5075807;28;20601;-62
2021/03/21 08:08:34;;;;;;;11.80;10.17;;;5.20;99.90;;;;;;5083263;28;20667;-61
2021/03/21 08:11:03;;;;;;;11.67;9.83;;;5.30;99.90;;;;;;5084869;28;20198;-62
2021/03/21 08:13:40;;;;;;;13.23;9.33;;;5.30;99.90;;;;;;5075710;28;20690;-61
2021/03/21 08:16:11;;;;;;;12.53;9.40;;;5.30;99.90;;;;;;5075074;28;20209;-61
2021/03/21 08:18:39;;;;;;;12.57;9.23;;;5.30;99.90;;;;;;5075412;28;20299;-61
2021/03/21 08:21:12;;;;;;;10.80;8.77;;;5.10;99.90;;;;;;5075355;28;20289;-60
2021/03/21 08:23:41;;;;;;;10.77;8.67;;;5.20;99.90;;;;;;5074841;28;20669;-60
2021/03/21 08:26:11;;;;;;;11.50;8.90;;;5.20;99.90;;;;;;5074672;28;20293;-60
2021/03/21 08:28:58;;;;;;;12.93;8.90;;;5.30;99.90;;;;;;5074988;28;20188;-60
2021/03/21 08:31:29;;;;;;;10.63;8.67;;;5.40;99.90;;;;;;5075026;28;20206;-60
2021/03/21 08:34:38;;;;;;;10.23;7.77;;;5.60;99.90;;;;;;5074706;28;20563;-61
2021/03/21 08:37:27;;;;;;;9.90;7.77;;;5.70;99.90;;;;;;5074567;28;20726;-62
2021/03/21 08:39:59;;;;;;;8.47;6.80;;;5.80;99.90;;;;;;5085844;28;20287;-60
2021/03/21 08:42:33;;;;;;;9.23;7.33;;;5.90;99.90;;;;;;5074362;28;20295;-60
2021/03/21 08:45:36;;;;;;;8.37;6.50;;;6.00;99.90;;;;;;5074679;28;20249;-61
2021/03/21 08:48:16;;;;;;;8.60;6.90;;;6.00;99.90;;;;;;5072445;28;20210;-61
2021/03/21 08:50:58;;;;;;;8.17;6.23;;;6.00;99.90;;;;;;5074360;28;20184;-61
2021/03/21 08:53:38;;;;;;;7.27;6.10;;;5.90;99.90;;;;;;5074091;28;20574;-61
2021/03/21 08:56:20;;;;;;;7.47;6.03;;;6.00;99.90;;;;;;5073680;28;20244;-61
2021/03/21 08:58:50;;;;;;;6.60;5.90;;;6.00;99.90;;;;;;5074312;28;20215;-60
2021/03/21 09:01:20;;;;;;;7.23;5.93;;;6.10;99.90;;;;;;5079002;28;20238;-62
2021/03/21 09:03:49;;;;;;;7.50;5.63;;;6.20;99.90;;;;;;5094400;28;20193;-63
2021/03/21 09:06:32;;;;;;;7.33;5.73;;;6.20;99.90;;;;;;5094430;28;20302;-61
2021/03/21 09:11:53;;;;;;;6.40;5.33;;;6.20;99.90;;;;;;5130550;27;20516;-62
2021/03/21 09:14:25;;;;;;;6.77;5.70;;;6.20;99.90;;;;;;5130268;28;20223;-62
2021/03/21 09:17:01;;;;;;;6.57;5.63;;;6.30;99.90;;;;;;5129835;28;20633;-62
2021/03/21 09:19:31;;;;;;;5.17;4.67;;;6.40;99.90;;;;;;5130414;28;20193;-61
2021/03/21 09:21:59;;;;;;;4.43;3.87;;;6.50;99.90;;;;;;5130741;28;20530;-61
2021/03/21 09:24:29;;;;;;;4.17;3.57;;;6.50;99.90;;;;;;5130271;27;20294;-60
2021/03/21 09:27:19;;;;;;;3.87;3.40;;;6.50;99.90;;;;;;5130064;28;20289;-60
2021/03/21 09:29:49;;;;;;;3.10;2.63;;;6.50;99.90;;;;;;5130305;28;20301;-62
2021/03/21 09:32:22;;;;;;;1.97;1.80;;;6.50;99.90;;;;;;5129965;28;20211;-62
2021/03/21 09:35:03;;;;;;;2.87;1.50;;;6.70;99.90;;;;;;5130509;28;20194;-61
2021/03/21 09:37:35;;;;;;;2.73;1.60;;;6.90;99.90;;;;;;5129979;28;20194;-60
2021/03/21 09:40:21;;;;;;;1.80;1.40;;;7.10;99.90;;;;;;5129492;28;20218;-61
2021/03/21 09:42:50;;;;;;;2.10;1.90;;;7.30;99.90;;;;;;5129714;27;20182;-63
2021/03/21 09:45:18;;;;;;;2.10;1.53;;;7.40;99.90;;;;;;5130300;28;20290;-61
2021/03/21 09:47:52;;;;;;;2.67;1.70;;;7.50;99.90;;;;;;5129901;28;20228;-61
2021/03/21 09:50:45;;;;;;;2.33;1.70;;;7.40;99.90;;;;;;5130256;28;20202;-62
2021/03/21 09:54:01;;;;;;;2.73;2.03;;;7.40;99.90;;;;;;5120945;28;20206;-61
2021/03/21 09:56:43;;;;;;;3.97;1.93;;;7.20;99.90;;;;;;5123582;28;20230;-61
2021/03/21 09:59:19;;;;;;;3.87;2.13;;;7.10;99.90;;;;;;5129878;28;20186;-61
2021/03/21 10:01:52;;;;;;;3.30;2.03;;;7.10;99.90;;;;;;5129463;28;20312;-61
2021/03/21 10:04:41;;;;;;;5.17;1.80;;;7.10;99.90;;;;;;5129873;27;20205;-62
2021/03/21 10:07:15;;;;;;;2.63;1.60;;;7.10;99.90;;;;;;5129763;27;20209;-60
2021/03/21 10:09:44;;;;;;;5.20;2.07;;;7.00;99.90;;;;;;5128964;27;20191;-61
2021/03/21 10:12:13;;;;;;;3.70;2.03;;;6.90;99.90;;;;;;5129345;27;20683;-62
2021/03/21 10:14:56;;;;;;;5.50;2.00;;;6.80;99.90;;;;;;5129415;27;20598;-60
2021/03/21 10:17:42;;;;;;;5.87;1.90;;;6.80;99.90;;;;;;5129601;27;20189;-61
2021/03/21 10:20:13;;;;;;;4.63;2.03;;;6.90;99.90;;;;;;5129353;27;20179;-62
2021/03/21 10:22:51;;;;;;;5.77;2.40;;;7.00;99.90;;;;;;5118349;27;20295;-62
2021/03/21 10:25:57;;;;;;;4.63;2.33;;;7.10;99.90;;;;;;5111732;28;20699;-62
2021/03/21 10:28:35;;;;;;;7.40;2.37;;;7.10;99.90;;;;;;5111087;28;20577;-61
2021/03/21 10:31:38;;;;;;;5.50;2.13;;;7.10;99.90;;;;;;5112848;28;20207;-60
2021/03/21 10:34:32;;;;;;;8.20;2.43;;;7.00;99.90;;;;;;5113792;28;20188;-62
2021/03/21 10:36:59;;;;;;;11.67;2.87;;;6.90;99.90;;;;;;5095443;28;20207;-62
2021/03/21 10:39:55;;;;;;;6.93;2.50;;;6.90;99.90;;;;;;5094781;28;20231;-61
2021/03/21 10:42:52;;;;;;;8.90;2.90;;;7.10;99.90;;;;;;5065193;28;20796;-61
2021/03/21 10:45:48;;;;;;;7.80;2.47;;;7.30;99.90;;;;;;5012669;28;20486;-62
2021/03/21 10:48:50;;;;;;;7.07;2.07;;;7.50;99.90;;;;;;5092510;28;20257;-61
2021/03/21 10:51:17;;;;;;;10.93;3.13;;;7.60;99.90;;;;;;5094513;28;20250;-62
2021/03/21 10:54:16;;;;;;;12.03;2.77;;;7.70;99.90;;;;;;5094485;28;20209;-61
2021/03/21 10:57:03;;;;;;;11.00;2.53;;;7.50;99.90;;;;;;5094574;28;20234;-62
2021/03/21 10:59:31;;;;;;;10.70;2.40;;;7.60;99.90;;;;;;5094284;28;20594;-62
2021/03/21 11:02:21;;;;;;;9.47;3.03;;;7.80;99.90;;;;;;5105036;28;20268;-62
2021/03/21 11:05:00;;;;;;;10.63;2.50;;;7.80;99.90;;;;;;5115231;28;20187;-61
2021/03/21 11:07:27;;;;;;;9.37;3.00;;;7.60;99.90;;;;;;5114808;28;20187;-61
2021/03/21 11:09:58;;;;;;;8.60;2.63;;;7.70;99.90;;;;;;5114125;28;20690;-61
2021/03/21 11:12:35;;;;;;;12.27;2.47;;;7.50;99.90;;;;;;5114944;28;20239;-61
2021/03/21 11:15:30;;;;;;;10.77;2.93;;;7.20;99.90;;;;;;5114640;28;20183;-60
2021/03/21 11:18:06;;;;;;;12.37;2.73;;;7.10;99.90;;;;;;5114720;27;20194;-61
2021/03/21 11:20:36;;;;;;;12.67;3.03;;;7.10;99.90;;;;;;5114826;27;20194;-62
2021/03/21 11:23:09;;;;;;;11.47;3.20;;;7.10;99.90;;;;;;5114596;28;20199;-60
2021/03/21 11:25:39;;;;;;;16.40;3.83;;;7.20;99.90;;;;;;5114402;28;20662;-62
2021/03/21 11:28:12;;;;;;;12.10;3.40;;;7.10;99.90;;;;;;5114400;28;20294;-61
2021/03/21 11:30:50;;;;;;;13.73;3.20;;;7.10;99.90;;;;;;5114722;28;20255;-61
2021/03/21 11:33:25;;;;;;;11.33;3.23;;;7.10;99.90;;;;;;5113474;28;20273;-62
2021/03/21 11:36:24;;;;;;;13.57;2.90;;;7.10;99.90;;;;;;5114243;28;20539;-61
2021/03/21 11:38:52;;;;;;;9.33;3.30;;;7.10;99.90;;;;;;5114059;28;20211;-61
2021/03/21 11:41:30;;;;;;;15.07;3.80;;;7.00;99.90;;;;;;5114147;28;20671;-61
2021/03/21 11:44:09;;;;;;;15.00;3.87;;;7.00;99.90;;;;;;5114247;28;20286;-62
2021/03/21 11:46:36;;;;;;;10.07;3.07;;;6.90;99.90;;;;;;5114668;28;20217;-61
2021/03/21 11:49:04;;;;;;;13.00;3.40;;;7.00;99.90;;;;;;5121629;28;20213;-61
2021/03/21 11:51:32;;;;;;;10.27;3.33;;;6.90;99.90;;;;;;5124939;28;20222;-60
2021/03/21 11:54:00;;;;;;;12.10;3.40;;;6.90;99.90;;;;;;5115756;28;20654;-61
2021/03/21 11:56:32;;;;;;;13.23;3.90;;;7.00;99.90;;;;;;5110815;28;20285;-62
2021/03/21 11:59:04;;;;;;;15.77;4.00;;;7.00;99.90;;;;;;5110080;28;20186;-62
2021/03/21 12:01:38;;;;;;;13.90;3.50;;;7.10;99.90;;;;;;5113756;28;20226;-60
2021/03/21 12:04:10;;;;;;;11.77;3.67;;;7.20;99.90;;;;;;5113626;28;20653;-62
2021/03/21 12:06:41;;;;;;;12.37;3.30;;;7.50;99.90;;;;;;5114112;27;20184;-61
2021/03/21 12:09:19;;;;;;;13.00;4.20;;;7.80;99.90;;;;;;5113261;28;20240;-61
2021/03/21 12:11:47;;;;;;;13.73;3.63;;;7.90;99.90;;;;;;5113073;28;20318;-61
2021/03/21 12:14:37;;;;;;;15.77;4.00;;;8.10;99.90;;;;;;5113329;28;20294;-62
2021/03/21 12:17:25;;;;;;;11.93;3.83;;;8.10;99.90;;;;;;5113450;28;20225;-62
2021/03/21 12:19:55;;;;;;;12.47;3.93;;;8.20;99.90;;;;;;5113552;28;20191;-61
2021/03/21 12:22:29;;;;;;;18.10;4.03;;;8.00;99.90;;;;;;5113311;28;20291;-62
2021/03/21 12:24:57;;;;;;;11.40;3.50;;;7.90;99.90;;;;;;5113117;28;20291;-62
2021/03/21 12:27:29;;;;;;;17.40;3.93;;;7.90;99.90;;;;;;5113095;27;20242;-62
2021/03/21 12:30:03;;;;;;;17.07;3.70;;;7.90;99.90;;;;;;5112194;28;20225;-62
2021/03/21 12:32:41;;;;;;;10.90;3.53;;;7.90;99.90;;;;;;5109719;28;20188;-60
2021/03/21 12:35:41;;;;;;;11.73;3.43;;;8.00;99.90;;;;;;5109824;28;20179;-62
2021/03/21 12:38:12;;;;;;;11.57;3.60;;;7.90;99.90;;;;;;5109513;28;20215;-61
2021/03/21 12:40:43;;;;;;;12.27;3.27;;;7.90;99.90;;;;;;5109105;28;20295;-62
2021/03/21 12:43:22;;;;;;;18.30;4.13;;;7.80;99.90;;;;;;5113236;28;20283;-62
2021/03/21 12:46:07;;;;;;;13.03;3.90;;;7.90;99.90;;;;;;5112779;28;20289;-61
2021/03/21 12:48:47;;;;;;;14.60;4.50;;;7.90;99.90;;;;;;5112381;28;20651;-62
2021/03/21 12:51:27;;;;;;;15.53;3.70;;;7.80;99.90;;;;;;5112886;28;20298;-60
2021/03/21 12:53:54;;;;;;;14.67;4.00;;;7.70;99.90;;;;;;5112795;28;20291;-61
2021/03/21 12:56:21;;;;;;;14.83;3.53;;;7.80;99.90;;;;;;5112842;28;20214;-62
2021/03/21 12:58:48;;;;;;;13.77;3.57;;;8.00;99.90;;;;;;5112516;28;20685;-61
2021/03/21 13:01:15;;;;;;;16.20;3.83;;;8.30;99.90;;;;;;5112474;28;20195;-62
2021/03/21 13:03:44;;;;;;;14.37;3.83;;;8.40;99.90;;;;;;5112994;28;20203;-61
2021/03/21 13:06:11;;;;;;;14.07;4.03;;;8.50;99.90;;;;;;5112814;28;20210;-61
2021/03/21 13:08:39;;;;;;;15.47;4.27;;;8.70;99.90;;;;;;5112392;28;20294;-61
2021/03/21 13:11:09;;;;;;;16.30;3.60;;;8.60;99.90;;;;;;5112035;28;20326;-61
2021/03/21 13:13:37;;;;;;;18.57;4.30;;;8.60;99.90;;;;;;5112661;28;20199;-60
2021/03/21 13:16:05;;;;;;;16.77;4.27;;;8.60;99.90;;;;;;5112927;28;20234;-61
2021/03/21 13:18:32;;;;;;;15.70;4.00;;;8.50;99.90;;;;;;5112761;28;20200;-62
2021/03/21 13:21:02;;;;;;;15.63;4.00;;;8.50;99.90;;;;;;5112452;28;20548;-61
2021/03/21 13:23:29;;;;;;;11.90;3.80;;;8.60;99.90;;;;;;5112442;28;20222;-62
2021/03/21 13:25:58;;;;;;;13.00;4.33;;;8.60;99.90;;;;;;5112852;28;20306;-62
2021/03/21 13:28:25;;;;;;;16.27;4.33;;;8.70;99.90;;;;;;5112772;28;20231;-62
2021/03/21 13:30:52;;;;;;;11.70;4.03;;;8.80;99.90;;;;;;5112731;28;20310;-61
2021/03/21 13:33:21;;;;;;;16.33;4.03;;;8.70;99.90;;;;;;5112501;28;20275;-62
2021/03/21 13:35:48;;;;;;;18.37;4.13;;;8.70;99.90;;;;;;5112926;28;20253;-61
2021/03/21 13:38:15;;;;;;;10.63;3.97;;;8.60;99.90;;;;;;5112255;28;20199;-61
2021/03/21 13:40:42;;;;;;;13.63;4.03;;;8.70;99.90;;;;;;5112659;28;20673;-62
2021/03/21 13:43:18;;;;;;;15.80;4.30;;;8.80;99.90;;;;;;5112424;28;20183;-60